sensor_id;sensor_type;location;lat;lon;timestamp;P1;durP1;ratioP1;P2;durP2;ratioP2
70635;SDS011;58206;47.310;19.502;2023-04-03T00:01:30;0.00;;;0.00;;
70635;SDS011;58206;47.310;19.502;2023-04-03T00:04:14;0.00;;;0.00;;
70635;SDS011;58206;47.310;19.502;2023-04-03T00:06:59;0.00;;;0.00;;
70635;SDS011;58206;47.310;19.502;2023-04-03T00:09:43;0.00;;;0.00;;
70635;SDS011;58206;47.310;19.502;2023-04-03T00:12:28;0.00;;;0.00;;
70635;SDS011;58206;47.310;19.502;2023-04-03T00:15:13;0.00;;;0.00;;
70635;SDS011;58206;47.310;19.502;2023-04-03T00:17:57;0.00;;;0.00;;
70635;SDS011;58206;47.310;19.502;2023-04-03T00:20:41;0.00;;;0.00;;
70635;SDS011;58206;47.310;19.502;2023-04-03T00:23:25;0.10;;;0.00;;
70635;SDS011;58206;47.310;19.502;2023-04-03T00:26:10;0.00;;;0.00;;
70635;SDS011;58206;47.310;19.502;2023-04-03T00:28:56;0.00;;;0.00;;
70635;SDS011;58206;47.310;19.502;2023-04-03T00:31:40;0.00;;;0.00;;
70635;SDS011;58206;47.310;19.502;2023-04-03T00:34:24;0.00;;;0.00;;
70635;SDS011;58206;47.310;19.502;2023-04-03T00:37:09;0.05;;;0.00;;
70635;SDS011;58206;47.310;19.502;2023-04-03T00:39:53;0.00;;;0.00;;
70635;SDS011;58206;47.310;19.502;2023-04-03T00:42:38;0.00;;;0.00;;
70635;SDS011;58206;47.310;19.502;2023-04-03T00:45:28;0.00;;;0.00;;
70635;SDS011;58206;47.310;19.502;2023-04-03T00:48:15;0.00;;;0.00;;
70635;SDS011;58206;47.310;19.502;2023-04-03T00:51:01;0.00;;;0.00;;
70635;SDS011;58206;47.310;19.502;2023-04-03T00:53:47;0.00;;;0.00;;
70635;SDS011;58206;47.310;19.502;2023-04-03T00:56:33;0.00;;;0.00;;
70635;SDS011;58206;47.310;19.502;2023-04-03T00:59:24;0.00;;;0.00;;
70635;SDS011;58206;47.310;19.502;2023-04-03T01:02:10;0.00;;;0.00;;
70635;SDS011;58206;47.310;19.502;2023-04-03T01:04:54;0.00;;;0.00;;
70635;SDS011;58206;47.310;19.502;2023-04-03T01:07:39;0.00;;;0.00;;
70635;SDS011;58206;47.310;19.502;2023-04-03T01:10:24;0.00;;;0.00;;
70635;SDS011;58206;47.310;19.502;2023-04-03T01:13:24;0.00;;;0.00;;
70635;SDS011;58206;47.310;19.502;2023-04-03T01:16:09;0.00;;;0.00;;
70635;SDS011;58206;47.310;19.502;2023-04-03T01:18:53;0.00;;;0.00;;
70635;SDS011;58206;47.310;19.502;2023-04-03T01:24:33;0.00;;;0.00;;
70635;SDS011;58206;47.310;19.502;2023-04-03T01:27:20;0.00;;;0.00;;
70635;SDS011;58206;47.310;19.502;2023-04-03T01:30:06;0.00;;;0.00;;
70635;SDS011;58206;47.310;19.502;2023-04-03T01:32:50;0.00;;;0.00;;
70635;SDS011;58206;47.310;19.502;2023-04-03T01:35:35;0.00;;;0.00;;
70635;SDS011;58206;47.310;19.502;2023-04-03T01:38:19;0.00;;;0.00;;
70635;SDS011;58206;47.310;19.502;2023-04-03T01:41:04;0.00;;;0.00;;
70635;SDS011;58206;47.310;19.502;2023-04-03T01:43:49;0.00;;;0.00;;
70635;SDS011;58206;47.310;19.502;2023-04-03T01:46:34;0.00;;;0.00;;
70635;SDS011;58206;47.310;19.502;2023-04-03T01:49:18;0.00;;;0.00;;
70635;SDS011;58206;47.310;19.502;2023-04-03T01:52:03;0.00;;;0.00;;
70635;SDS011;58206;47.310;19.502;2023-04-03T01:54:47;0.00;;;0.00;;
70635;SDS011;58206;47.310;19.502;2023-04-03T01:57:32;0.00;;;0.00;;
70635;SDS011;58206;47.310;19.502;2023-04-03T02:00:16;0.00;;;0.00;;
70635;SDS011;58206;47.310;19.502;2023-04-03T02:03:01;0.00;;;0.00;;
70635;SDS011;58206;47.310;19.502;2023-04-03T02:05:46;0.00;;;0.00;;
70635;SDS011;58206;47.310;19.502;2023-04-03T02:08:30;0.00;;;0.00;;
70635;SDS011;58206;47.310;19.502;2023-04-03T02:11:14;0.00;;;0.00;;
70635;SDS011;58206;47.310;19.502;2023-04-03T02:13:59;0.00;;;0.00;;
70635;SDS011;58206;47.310;19.502;2023-04-03T02:16:43;0.00;;;0.00;;
70635;SDS011;58206;47.310;19.502;2023-04-03T02:19:28;0.00;;;0.00;;
70635;SDS011;58206;47.310;19.502;2023-04-03T02:22:12;0.00;;;0.00;;
70635;SDS011;58206;47.310;19.502;2023-04-03T02:24:57;0.00;;;0.00;;
70635;SDS011;58206;47.310;19.502;2023-04-03T02:27:47;0.68;;;0.68;;
70635;SDS011;58206;47.310;19.502;2023-04-03T02:30:32;0.00;;;0.00;;
70635;SDS011;58206;47.310;19.502;2023-04-03T02:33:16;0.00;;;0.00;;
70635;SDS011;58206;47.310;19.502;2023-04-03T02:36:02;0.00;;;0.00;;
70635;SDS011;58206;47.310;19.502;2023-04-03T02:38:47;0.00;;;0.00;;
70635;SDS011;58206;47.310;19.502;2023-04-03T02:41:32;0.00;;;0.00;;
70635;SDS011;58206;47.310;19.502;2023-04-03T02:44:21;0.00;;;0.00;;
70635;SDS011;58206;47.310;19.502;2023-04-03T02:47:08;0.00;;;0.00;;
70635;SDS011;58206;47.310;19.502;2023-04-03T02:49:52;0.00;;;0.00;;
70635;SDS011;58206;47.310;19.502;2023-04-03T02:52:36;0.00;;;0.00;;
70635;SDS011;58206;47.310;19.502;2023-04-03T02:55:21;0.00;;;0.00;;
70635;SDS011;58206;47.310;19.502;2023-04-03T02:58:08;0.00;;;0.00;;
70635;SDS011;58206;47.310;19.502;2023-04-03T03:00:53;0.00;;;0.00;;
70635;SDS011;58206;47.310;19.502;2023-04-03T03:03:37;0.00;;;0.00;;
70635;SDS011;58206;47.310;19.502;2023-04-03T03:06:22;0.00;;;0.00;;
70635;SDS011;58206;47.310;19.502;2023-04-03T03:09:06;0.00;;;0.00;;
70635;SDS011;58206;47.310;19.502;2023-04-03T03:11:51;0.00;;;0.00;;
70635;SDS011;58206;47.310;19.502;2023-04-03T03:14:36;0.00;;;0.00;;
70635;SDS011;58206;47.310;19.502;2023-04-03T03:17:20;0.00;;;0.00;;
70635;SDS011;58206;47.310;19.502;2023-04-03T03:20:05;0.00;;;0.00;;
70635;SDS011;58206;47.310;19.502;2023-04-03T03:22:49;0.00;;;0.00;;
70635;SDS011;58206;47.310;19.502;2023-04-03T03:25:37;0.00;;;0.00;;
70635;SDS011;58206;47.310;19.502;2023-04-03T03:28:22;0.00;;;0.00;;
70635;SDS011;58206;47.310;19.502;2023-04-03T03:31:08;0.00;;;0.00;;
70635;SDS011;58206;47.310;19.502;2023-04-03T03:33:54;0.00;;;0.00;;
70635;SDS011;58206;47.310;19.502;2023-04-03T03:36:40;0.00;;;0.00;;
70635;SDS011;58206;47.310;19.502;2023-04-03T03:39:25;0.00;;;0.00;;
70635;SDS011;58206;47.310;19.502;2023-04-03T03:42:10;0.00;;;0.00;;
70635;SDS011;58206;47.310;19.502;2023-04-03T03:44:55;0.00;;;0.00;;
70635;SDS011;58206;47.310;19.502;2023-04-03T03:47:39;0.00;;;0.00;;
70635;SDS011;58206;47.310;19.502;2023-04-03T03:50:25;0.00;;;0.00;;
70635;SDS011;58206;47.310;19.502;2023-04-03T03:53:09;0.00;;;0.00;;
70635;SDS011;58206;47.310;19.502;2023-04-03T03:55:54;0.00;;;0.00;;
70635;SDS011;58206;47.310;19.502;2023-04-03T03:58:40;0.00;;;0.00;;
70635;SDS011;58206;47.310;19.502;2023-04-03T04:01:25;0.00;;;0.00;;
70635;SDS011;58206;47.310;19.502;2023-04-03T04:04:10;0.00;;;0.00;;
70635;SDS011;58206;47.310;19.502;2023-04-03T04:06:55;0.00;;;0.00;;
70635;SDS011;58206;47.310;19.502;2023-04-03T04:09:39;0.00;;;0.00;;
70635;SDS011;58206;47.310;19.502;2023-04-03T04:12:26;0.00;;;0.00;;
70635;SDS011;58206;47.310;19.502;2023-04-03T04:15:11;0.00;;;0.00;;
70635;SDS011;58206;47.310;19.502;2023-04-03T04:17:57;0.00;;;0.00;;
70635;SDS011;58206;47.310;19.502;2023-04-03T04:20:41;0.00;;;0.00;;
70635;SDS011;58206;47.310;19.502;2023-04-03T04:23:26;0.00;;;0.00;;
70635;SDS011;58206;47.310;19.502;2023-04-03T04:26:11;0.00;;;0.00;;
70635;SDS011;58206;47.310;19.502;2023-04-03T04:28:57;0.00;;;0.00;;
70635;SDS011;58206;47.310;19.502;2023-04-03T04:31:42;0.00;;;0.00;;
70635;SDS011;58206;47.310;19.502;2023-04-03T04:34:26;0.00;;;0.00;;
70635;SDS011;58206;47.310;19.502;2023-04-03T04:37:10;0.00;;;0.00;;
70635;SDS011;58206;47.310;19.502;2023-04-03T04:39:55;0.00;;;0.00;;
70635;SDS011;58206;47.310;19.502;2023-04-03T04:42:40;0.00;;;0.00;;
70635;SDS011;58206;47.310;19.502;2023-04-03T04:45:25;0.00;;;0.00;;
70635;SDS011;58206;47.310;19.502;2023-04-03T04:48:10;0.00;;;0.00;;
70635;SDS011;58206;47.310;19.502;2023-04-03T04:50:55;0.00;;;0.00;;
70635;SDS011;58206;47.310;19.502;2023-04-03T04:53:39;0.00;;;0.00;;
70635;SDS011;58206;47.310;19.502;2023-04-03T04:56:25;0.00;;;0.00;;
70635;SDS011;58206;47.310;19.502;2023-04-03T04:59:12;0.00;;;0.00;;
70635;SDS011;58206;47.310;19.502;2023-04-03T05:01:57;0.00;;;0.00;;
70635;SDS011;58206;47.310;19.502;2023-04-03T05:04:42;0.00;;;0.00;;
70635;SDS011;58206;47.310;19.502;2023-04-03T05:07:32;0.00;;;0.00;;
70635;SDS011;58206;47.310;19.502;2023-04-03T05:10:18;0.00;;;0.00;;
70635;SDS011;58206;47.310;19.502;2023-04-03T05:13:02;0.00;;;0.00;;
70635;SDS011;58206;47.310;19.502;2023-04-03T05:15:47;0.00;;;0.00;;
70635;SDS011;58206;47.310;19.502;2023-04-03T05:18:32;0.00;;;0.00;;
70635;SDS011;58206;47.310;19.502;2023-04-03T05:21:20;0.00;;;0.00;;
70635;SDS011;58206;47.310;19.502;2023-04-03T05:24:07;0.00;;;0.00;;
70635;SDS011;58206;47.310;19.502;2023-04-03T05:26:55;0.00;;;0.00;;
70635;SDS011;58206;47.310;19.502;2023-04-03T05:29:40;0.00;;;0.00;;
70635;SDS011;58206;47.310;19.502;2023-04-03T05:32:37;0.00;;;0.00;;
70635;SDS011;58206;47.310;19.502;2023-04-03T05:35:44;0.00;;;0.00;;
70635;SDS011;58206;47.310;19.502;2023-04-03T05:38:34;0.00;;;0.00;;
70635;SDS011;58206;47.310;19.502;2023-04-03T05:41:18;0.00;;;0.00;;
70635;SDS011;58206;47.310;19.502;2023-04-03T05:44:04;0.00;;;0.00;;
70635;SDS011;58206;47.310;19.502;2023-04-03T05:46:48;0.00;;;0.00;;
70635;SDS011;58206;47.310;19.502;2023-04-03T05:49:32;0.00;;;0.00;;
70635;SDS011;58206;47.310;19.502;2023-04-03T05:52:22;0.28;;;0.28;;
70635;SDS011;58206;47.310;19.502;2023-04-03T05:55:08;0.03;;;0.00;;
70635;SDS011;58206;47.310;19.502;2023-04-03T05:57:55;0.00;;;0.00;;
70635;SDS011;58206;47.310;19.502;2023-04-03T06:00:40;0.20;;;0.00;;
70635;SDS011;58206;47.310;19.502;2023-04-03T06:03:24;0.05;;;0.00;;
70635;SDS011;58206;47.310;19.502;2023-04-03T06:06:12;0.00;;;0.00;;
70635;SDS011;58206;47.310;19.502;2023-04-03T06:08:56;0.00;;;0.00;;
70635;SDS011;58206;47.310;19.502;2023-04-03T06:11:41;0.03;;;0.00;;
70635;SDS011;58206;47.310;19.502;2023-04-03T06:14:26;0.00;;;0.00;;
70635;SDS011;58206;47.310;19.502;2023-04-03T06:17:10;0.00;;;0.00;;
70635;SDS011;58206;47.310;19.502;2023-04-03T06:19:56;0.00;;;0.00;;
70635;SDS011;58206;47.310;19.502;2023-04-03T06:22:43;0.10;;;0.00;;
70635;SDS011;58206;47.310;19.502;2023-04-03T06:25:29;0.00;;;0.00;;
70635;SDS011;58206;47.310;19.502;2023-04-03T06:28:13;0.10;;;0.00;;
70635;SDS011;58206;47.310;19.502;2023-04-03T06:30:57;0.10;;;0.00;;
70635;SDS011;58206;47.310;19.502;2023-04-03T06:33:43;0.00;;;0.00;;
70635;SDS011;58206;47.310;19.502;2023-04-03T06:36:28;0.20;;;0.00;;
70635;SDS011;58206;47.310;19.502;2023-04-03T06:39:17;0.10;;;0.00;;
70635;SDS011;58206;47.310;19.502;2023-04-03T06:42:02;0.10;;;0.00;;
70635;SDS011;58206;47.310;19.502;2023-04-03T06:44:54;0.20;;;0.00;;
70635;SDS011;58206;47.310;19.502;2023-04-03T06:47:39;0.10;;;0.00;;
70635;SDS011;58206;47.310;19.502;2023-04-03T06:50:24;0.10;;;0.00;;
70635;SDS011;58206;47.310;19.502;2023-04-03T06:53:09;0.20;;;0.00;;
70635;SDS011;58206;47.310;19.502;2023-04-03T06:55:54;0.20;;;0.00;;
70635;SDS011;58206;47.310;19.502;2023-04-03T06:58:38;0.15;;;0.00;;
70635;SDS011;58206;47.310;19.502;2023-04-03T07:01:23;0.20;;;0.00;;
70635;SDS011;58206;47.310;19.502;2023-04-03T07:04:11;0.10;;;0.00;;
70635;SDS011;58206;47.310;19.502;2023-04-03T07:06:55;0.30;;;0.00;;
70635;SDS011;58206;47.310;19.502;2023-04-03T07:09:40;0.20;;;0.00;;
70635;SDS011;58206;47.310;19.502;2023-04-03T07:12:24;0.30;;;0.00;;
70635;SDS011;58206;47.310;19.502;2023-04-03T07:15:08;0.20;;;0.00;;
70635;SDS011;58206;47.310;19.502;2023-04-03T07:17:53;0.20;;;0.00;;
70635;SDS011;58206;47.310;19.502;2023-04-03T07:20:38;0.20;;;0.00;;
70635;SDS011;58206;47.310;19.502;2023-04-03T07:23:23;0.20;;;0.00;;
70635;SDS011;58206;47.310;19.502;2023-04-03T07:26:07;0.20;;;0.00;;
70635;SDS011;58206;47.310;19.502;2023-04-03T07:28:52;0.30;;;0.00;;
70635;SDS011;58206;47.310;19.502;2023-04-03T07:31:36;0.40;;;0.10;;
70635;SDS011;58206;47.310;19.502;2023-04-03T07:34:23;0.30;;;0.00;;
70635;SDS011;58206;47.310;19.502;2023-04-03T07:37:07;0.38;;;0.08;;
70635;SDS011;58206;47.310;19.502;2023-04-03T07:39:52;0.20;;;0.00;;
70635;SDS011;58206;47.310;19.502;2023-04-03T07:42:37;0.20;;;0.00;;
70635;SDS011;58206;47.310;19.502;2023-04-03T07:45:21;0.20;;;0.00;;
70635;SDS011;58206;47.310;19.502;2023-04-03T07:48:07;0.10;;;0.00;;
70635;SDS011;58206;47.310;19.502;2023-04-03T07:50:51;0.17;;;0.00;;
70635;SDS011;58206;47.310;19.502;2023-04-03T07:53:36;0.20;;;0.00;;
70635;SDS011;58206;47.310;19.502;2023-04-03T07:56:20;0.20;;;0.00;;
70635;SDS011;58206;47.310;19.502;2023-04-03T07:59:05;0.20;;;0.00;;
70635;SDS011;58206;47.310;19.502;2023-04-03T08:01:49;0.10;;;0.00;;
70635;SDS011;58206;47.310;19.502;2023-04-03T08:04:33;0.20;;;0.00;;
70635;SDS011;58206;47.310;19.502;2023-04-03T08:07:17;0.17;;;0.00;;
70635;SDS011;58206;47.310;19.502;2023-04-03T08:10:05;0.20;;;0.00;;
70635;SDS011;58206;47.310;19.502;2023-04-03T08:12:50;0.30;;;0.00;;
70635;SDS011;58206;47.310;19.502;2023-04-03T08:15:35;0.10;;;0.00;;
70635;SDS011;58206;47.310;19.502;2023-04-03T08:18:21;0.10;;;0.00;;
70635;SDS011;58206;47.310;19.502;2023-04-03T08:21:09;0.20;;;0.00;;
70635;SDS011;58206;47.310;19.502;2023-04-03T08:23:53;0.10;;;0.00;;
70635;SDS011;58206;47.310;19.502;2023-04-03T08:26:38;0.20;;;0.00;;
70635;SDS011;58206;47.310;19.502;2023-04-03T08:29:22;0.20;;;0.00;;
70635;SDS011;58206;47.310;19.502;2023-04-03T08:32:07;0.20;;;0.00;;
70635;SDS011;58206;47.310;19.502;2023-04-03T08:34:51;0.20;;;0.00;;
70635;SDS011;58206;47.310;19.502;2023-04-03T08:37:36;0.20;;;0.00;;
70635;SDS011;58206;47.310;19.502;2023-04-03T08:40:20;0.43;;;0.30;;
70635;SDS011;58206;47.310;19.502;2023-04-03T08:46:09;0.20;;;0.00;;
70635;SDS011;58206;47.310;19.502;2023-04-03T08:48:58;0.20;;;0.00;;
70635;SDS011;58206;47.310;19.502;2023-04-03T08:51:46;0.20;;;0.00;;
70635;SDS011;58206;47.310;19.502;2023-04-03T08:54:33;0.20;;;0.00;;
70635;SDS011;58206;47.310;19.502;2023-04-03T08:57:29;0.20;;;0.00;;
70635;SDS011;58206;47.310;19.502;2023-04-03T09:02:59;0.30;;;0.00;;
70635;SDS011;58206;47.310;19.502;2023-04-03T09:05:48;0.20;;;0.00;;
70635;SDS011;58206;47.310;19.502;2023-04-03T09:08:40;0.25;;;0.08;;
70635;SDS011;58206;47.310;19.502;2023-04-03T09:11:43;0.20;;;0.00;;
70635;SDS011;58206;47.310;19.502;2023-04-03T09:14:32;0.30;;;0.10;;
70635;SDS011;58206;47.310;19.502;2023-04-03T09:20:44;0.30;;;0.00;;
70635;SDS011;58206;47.310;19.502;2023-04-03T09:23:31;0.30;;;0.00;;
70635;SDS011;58206;47.310;19.502;2023-04-03T09:29:05;0.30;;;0.05;;
70635;SDS011;58206;47.310;19.502;2023-04-03T09:31:52;0.30;;;0.00;;
70635;SDS011;58206;47.310;19.502;2023-04-03T09:34:40;0.30;;;0.00;;
70635;SDS011;58206;47.310;19.502;2023-04-03T09:37:42;0.30;;;0.00;;
70635;SDS011;58206;47.310;19.502;2023-04-03T09:40:40;0.20;;;0.00;;
70635;SDS011;58206;47.310;19.502;2023-04-03T09:43:27;0.20;;;0.00;;
70635;SDS011;58206;47.310;19.502;2023-04-03T09:46:25;0.30;;;0.00;;
70635;SDS011;58206;47.310;19.502;2023-04-03T09:49:10;0.30;;;0.10;;
70635;SDS011;58206;47.310;19.502;2023-04-03T09:51:55;0.30;;;0.00;;
70635;SDS011;58206;47.310;19.502;2023-04-03T09:54:40;0.10;;;0.00;;
70635;SDS011;58206;47.310;19.502;2023-04-03T09:57:28;0.20;;;0.00;;
70635;SDS011;58206;47.310;19.502;2023-04-03T10:00:23;0.25;;;0.00;;
70635;SDS011;58206;47.310;19.502;2023-04-03T10:06:21;0.10;;;0.00;;
70635;SDS011;58206;47.310;19.502;2023-04-03T10:09:22;0.20;;;0.00;;
70635;SDS011;58206;47.310;19.502;2023-04-03T10:12:07;0.20;;;0.00;;
70635;SDS011;58206;47.310;19.502;2023-04-03T10:14:58;0.20;;;0.00;;
70635;SDS011;58206;47.310;19.502;2023-04-03T10:17:47;0.35;;;0.10;;
70635;SDS011;58206;47.310;19.502;2023-04-03T10:23:18;0.20;;;0.00;;
70635;SDS011;58206;47.310;19.502;2023-04-03T10:26:12;0.20;;;0.00;;
70635;SDS011;58206;47.310;19.502;2023-04-03T10:34:39;0.20;;;0.00;;
70635;SDS011;58206;47.310;19.502;2023-04-03T10:37:34;0.10;;;0.00;;
70635;SDS011;58206;47.310;19.502;2023-04-03T10:43:30;0.20;;;0.00;;
70635;SDS011;58206;47.310;19.502;2023-04-03T10:46:20;0.13;;;0.00;;
70635;SDS011;58206;47.310;19.502;2023-04-03T10:52:24;0.20;;;0.00;;
70635;SDS011;58206;47.310;19.502;2023-04-03T10:58:05;0.30;;;0.10;;
70635;SDS011;58206;47.310;19.502;2023-04-03T11:00:50;0.32;;;0.10;;
70635;SDS011;58206;47.310;19.502;2023-04-03T11:03:38;0.30;;;0.10;;
70635;SDS011;58206;47.310;19.502;2023-04-03T11:06:26;0.20;;;0.10;;
70635;SDS011;58206;47.310;19.502;2023-04-03T11:09:17;0.40;;;0.10;;
70635;SDS011;58206;47.310;19.502;2023-04-03T11:12:13;0.70;;;0.20;;
70635;SDS011;58206;47.310;19.502;2023-04-03T11:14:59;0.30;;;0.10;;
70635;SDS011;58206;47.310;19.502;2023-04-03T11:17:53;0.30;;;0.10;;
70635;SDS011;58206;47.310;19.502;2023-04-03T11:20:38;0.30;;;0.10;;
70635;SDS011;58206;47.310;19.502;2023-04-03T11:23:26;0.20;;;0.10;;
70635;SDS011;58206;47.310;19.502;2023-04-03T11:26:14;0.20;;;0.00;;
70635;SDS011;58206;47.310;19.502;2023-04-03T11:29:01;0.30;;;0.10;;
70635;SDS011;58206;47.310;19.502;2023-04-03T11:34:51;0.30;;;0.10;;
70635;SDS011;58206;47.310;19.502;2023-04-03T11:37:39;0.30;;;0.10;;
70635;SDS011;58206;47.310;19.502;2023-04-03T11:40:26;0.30;;;0.10;;
70635;SDS011;58206;47.310;19.502;2023-04-03T11:43:22;0.20;;;0.00;;
70635;SDS011;58206;47.310;19.502;2023-04-03T11:46:10;0.30;;;0.03;;
70635;SDS011;58206;47.310;19.502;2023-04-03T11:49:04;0.20;;;0.00;;
70635;SDS011;58206;47.310;19.502;2023-04-03T11:51:50;0.30;;;0.00;;
70635;SDS011;58206;47.310;19.502;2023-04-03T11:54:42;0.30;;;0.00;;
70635;SDS011;58206;47.310;19.502;2023-04-03T12:09:01;0.20;;;0.00;;
70635;SDS011;58206;47.310;19.502;2023-04-03T12:11:45;0.20;;;0.00;;
70635;SDS011;58206;47.310;19.502;2023-04-03T12:14:30;0.20;;;0.00;;
70635;SDS011;58206;47.310;19.502;2023-04-03T12:17:27;0.23;;;0.00;;
70635;SDS011;58206;47.310;19.502;2023-04-03T12:21:15;0.20;;;0.00;;
70635;SDS011;58206;47.310;19.502;2023-04-03T12:44:26;0.20;;;0.00;;
70635;SDS011;58206;47.310;19.502;2023-04-03T12:47:21;0.17;;;0.00;;
70635;SDS011;58206;47.310;19.502;2023-04-03T12:53:24;0.30;;;0.00;;
70635;SDS011;58206;47.310;19.502;2023-04-03T12:59:14;0.20;;;0.00;;
70635;SDS011;58206;47.310;19.502;2023-04-03T13:02:00;0.10;;;0.00;;
70635;SDS011;58206;47.310;19.502;2023-04-03T13:04:45;0.10;;;0.00;;
70635;SDS011;58206;47.310;19.502;2023-04-03T13:07:31;0.10;;;0.00;;
70635;SDS011;58206;47.310;19.502;2023-04-03T13:10:17;0.20;;;0.00;;
70635;SDS011;58206;47.310;19.502;2023-04-03T13:13:09;0.20;;;0.00;;
70635;SDS011;58206;47.310;19.502;2023-04-03T13:15:54;0.10;;;0.00;;
70635;SDS011;58206;47.310;19.502;2023-04-03T13:18:39;0.10;;;0.00;;
70635;SDS011;58206;47.310;19.502;2023-04-03T13:24:08;0.20;;;0.00;;
70635;SDS011;58206;47.310;19.502;2023-04-03T13:26:53;0.10;;;0.00;;
70635;SDS011;58206;47.310;19.502;2023-04-03T13:29:38;0.10;;;0.00;;
70635;SDS011;58206;47.310;19.502;2023-04-03T13:32:23;0.13;;;0.00;;
70635;SDS011;58206;47.310;19.502;2023-04-03T13:35:24;0.10;;;0.00;;
70635;SDS011;58206;47.310;19.502;2023-04-03T13:41:04;0.15;;;0.00;;
70635;SDS011;58206;47.310;19.502;2023-04-03T13:43:49;0.10;;;0.00;;
70635;SDS011;58206;47.310;19.502;2023-04-03T13:46:33;0.10;;;0.00;;
70635;SDS011;58206;47.310;19.502;2023-04-03T13:49:36;0.10;;;0.00;;
70635;SDS011;58206;47.310;19.502;2023-04-03T13:56:24;0.10;;;0.00;;
70635;SDS011;58206;47.310;19.502;2023-04-03T14:04:49;0.13;;;0.00;;
70635;SDS011;58206;47.310;19.502;2023-04-03T14:07:34;0.13;;;0.00;;
70635;SDS011;58206;47.310;19.502;2023-04-03T14:10:19;0.15;;;0.00;;
70635;SDS011;58206;47.310;19.502;2023-04-03T14:13:04;0.10;;;0.00;;
70635;SDS011;58206;47.310;19.502;2023-04-03T14:15:48;0.20;;;0.00;;
70635;SDS011;58206;47.310;19.502;2023-04-03T14:18:34;0.30;;;0.00;;
70635;SDS011;58206;47.310;19.502;2023-04-03T14:21:21;0.10;;;0.00;;
70635;SDS011;58206;47.310;19.502;2023-04-03T14:24:05;0.20;;;0.00;;
70635;SDS011;58206;47.310;19.502;2023-04-03T14:26:51;0.10;;;0.00;;
70635;SDS011;58206;47.310;19.502;2023-04-03T14:29:35;0.10;;;0.00;;
70635;SDS011;58206;47.310;19.502;2023-04-03T14:32:21;0.10;;;0.00;;
70635;SDS011;58206;47.310;19.502;2023-04-03T14:35:05;0.10;;;0.00;;
70635;SDS011;58206;47.310;19.502;2023-04-03T14:37:51;0.08;;;0.00;;
70635;SDS011;58206;47.310;19.502;2023-04-03T14:40:36;0.03;;;0.00;;
70635;SDS011;58206;47.310;19.502;2023-04-03T14:43:21;0.20;;;0.00;;
70635;SDS011;58206;47.310;19.502;2023-04-03T14:46:10;0.20;;;0.00;;
70635;SDS011;58206;47.310;19.502;2023-04-03T14:48:56;0.20;;;0.00;;
70635;SDS011;58206;47.310;19.502;2023-04-03T14:51:40;0.13;;;0.00;;
70635;SDS011;58206;47.310;19.502;2023-04-03T14:54:25;0.20;;;0.00;;
70635;SDS011;58206;47.310;19.502;2023-04-03T14:57:11;0.28;;;0.00;;
70635;SDS011;58206;47.310;19.502;2023-04-03T14:59:57;0.20;;;0.00;;
70635;SDS011;58206;47.310;19.502;2023-04-03T15:02:45;0.10;;;0.00;;
70635;SDS011;58206;47.310;19.502;2023-04-03T15:05:30;0.00;;;0.00;;
70635;SDS011;58206;47.310;19.502;2023-04-03T15:11:01;0.10;;;0.00;;
70635;SDS011;58206;47.310;19.502;2023-04-03T15:13:46;0.20;;;0.00;;
70635;SDS011;58206;47.310;19.502;2023-04-03T15:16:30;0.10;;;0.00;;
70635;SDS011;58206;47.310;19.502;2023-04-03T15:19:14;0.10;;;0.00;;
70635;SDS011;58206;47.310;19.502;2023-04-03T15:21:59;0.63;;;0.63;;
70635;SDS011;58206;47.310;19.502;2023-04-03T15:24:43;0.10;;;0.00;;
70635;SDS011;58206;47.310;19.502;2023-04-03T15:27:27;0.10;;;0.00;;
70635;SDS011;58206;47.310;19.502;2023-04-03T15:30:16;0.10;;;0.00;;
70635;SDS011;58206;47.310;19.502;2023-04-03T15:33:01;0.00;;;0.00;;
70635;SDS011;58206;47.310;19.502;2023-04-03T15:35:45;0.10;;;0.00;;
70635;SDS011;58206;47.310;19.502;2023-04-03T15:38:30;0.00;;;0.00;;
70635;SDS011;58206;47.310;19.502;2023-04-03T15:41:14;0.10;;;0.00;;
70635;SDS011;58206;47.310;19.502;2023-04-03T15:43:59;0.10;;;0.00;;
70635;SDS011;58206;47.310;19.502;2023-04-03T15:46:44;0.00;;;0.00;;
70635;SDS011;58206;47.310;19.502;2023-04-03T15:49:29;0.00;;;0.00;;
70635;SDS011;58206;47.310;19.502;2023-04-03T15:52:14;0.10;;;0.00;;
70635;SDS011;58206;47.310;19.502;2023-04-03T15:54:58;0.00;;;0.00;;
70635;SDS011;58206;47.310;19.502;2023-04-03T15:57:43;0.00;;;0.00;;
70635;SDS011;58206;47.310;19.502;2023-04-03T16:00:28;0.00;;;0.00;;
70635;SDS011;58206;47.310;19.502;2023-04-03T16:03:15;0.00;;;0.00;;
70635;SDS011;58206;47.310;19.502;2023-04-03T16:06:00;0.00;;;0.00;;
70635;SDS011;58206;47.310;19.502;2023-04-03T16:08:46;0.00;;;0.00;;
70635;SDS011;58206;47.310;19.502;2023-04-03T16:11:30;0.00;;;0.00;;
70635;SDS011;58206;47.310;19.502;2023-04-03T16:14:15;0.00;;;0.00;;
70635;SDS011;58206;47.310;19.502;2023-04-03T16:16:59;0.00;;;0.00;;
70635;SDS011;58206;47.310;19.502;2023-04-03T16:19:44;0.00;;;0.00;;
70635;SDS011;58206;47.310;19.502;2023-04-03T16:22:28;0.00;;;0.00;;
70635;SDS011;58206;47.310;19.502;2023-04-03T16:25:13;0.00;;;0.00;;
70635;SDS011;58206;47.310;19.502;2023-04-03T16:27:57;0.00;;;0.00;;
70635;SDS011;58206;47.310;19.502;2023-04-03T16:30:42;0.00;;;0.00;;
70635;SDS011;58206;47.310;19.502;2023-04-03T16:33:27;0.00;;;0.00;;
70635;SDS011;58206;47.310;19.502;2023-04-03T16:36:11;0.00;;;0.00;;
70635;SDS011;58206;47.310;19.502;2023-04-03T16:38:55;0.00;;;0.00;;
70635;SDS011;58206;47.310;19.502;2023-04-03T16:41:39;0.00;;;0.00;;
70635;SDS011;58206;47.310;19.502;2023-04-03T16:44:24;0.00;;;0.00;;
70635;SDS011;58206;47.310;19.502;2023-04-03T16:47:09;0.00;;;0.00;;
70635;SDS011;58206;47.310;19.502;2023-04-03T16:49:54;0.00;;;0.00;;
70635;SDS011;58206;47.310;19.502;2023-04-03T16:52:38;0.00;;;0.00;;
70635;SDS011;58206;47.310;19.502;2023-04-03T16:55:23;0.00;;;0.00;;
70635;SDS011;58206;47.310;19.502;2023-04-03T16:58:07;0.00;;;0.00;;
70635;SDS011;58206;47.310;19.502;2023-04-03T17:00:53;0.00;;;0.00;;
70635;SDS011;58206;47.310;19.502;2023-04-03T17:03:39;0.00;;;0.00;;
70635;SDS011;58206;47.310;19.502;2023-04-03T17:06:23;0.00;;;0.00;;
70635;SDS011;58206;47.310;19.502;2023-04-03T17:09:08;0.00;;;0.00;;
70635;SDS011;58206;47.310;19.502;2023-04-03T17:11:53;0.00;;;0.00;;
70635;SDS011;58206;47.310;19.502;2023-04-03T17:14:38;0.00;;;0.00;;
70635;SDS011;58206;47.310;19.502;2023-04-03T17:17:23;0.00;;;0.00;;
70635;SDS011;58206;47.310;19.502;2023-04-03T17:20:09;0.00;;;0.00;;
70635;SDS011;58206;47.310;19.502;2023-04-03T17:22:54;0.00;;;0.00;;
70635;SDS011;58206;47.310;19.502;2023-04-03T17:25:39;0.00;;;0.00;;
70635;SDS011;58206;47.310;19.502;2023-04-03T17:28:23;0.00;;;0.00;;
70635;SDS011;58206;47.310;19.502;2023-04-03T17:31:13;0.00;;;0.00;;
70635;SDS011;58206;47.310;19.502;2023-04-03T17:33:57;0.00;;;0.00;;
70635;SDS011;58206;47.310;19.502;2023-04-03T17:36:44;0.00;;;0.00;;
70635;SDS011;58206;47.310;19.502;2023-04-03T17:39:29;0.00;;;0.00;;
70635;SDS011;58206;47.310;19.502;2023-04-03T17:42:13;0.00;;;0.00;;
70635;SDS011;58206;47.310;19.502;2023-04-03T17:44:59;0.00;;;0.00;;
70635;SDS011;58206;47.310;19.502;2023-04-03T17:47:44;0.00;;;0.00;;
70635;SDS011;58206;47.310;19.502;2023-04-03T17:50:30;0.00;;;0.00;;
70635;SDS011;58206;47.310;19.502;2023-04-03T17:53:14;0.00;;;0.00;;
70635;SDS011;58206;47.310;19.502;2023-04-03T17:56:04;0.00;;;0.00;;
70635;SDS011;58206;47.310;19.502;2023-04-03T17:58:49;0.00;;;0.00;;
70635;SDS011;58206;47.310;19.502;2023-04-03T18:01:34;0.00;;;0.00;;